sensor_id;sensor_type;location;lat;lon;timestamp;pressure;altitude;pressure_sealevel;temperature;humidity
54453;BME280;40363;52.270;10.546;2024-02-23T00:01:57;97500.56;;;9.01;59.25
54453;BME280;40363;52.270;10.546;2024-02-23T00:04:24;97513.03;;;8.98;59.23
54453;BME280;40363;52.270;10.546;2024-02-23T00:06:50;97516.16;;;8.97;59.86
54453;BME280;40363;52.270;10.546;2024-02-23T00:09:17;97515.78;;;8.98;59.79
54453;BME280;40363;52.270;10.546;2024-02-23T00:11:45;97515.03;;;8.94;60.66
54453;BME280;40363;52.270;10.546;2024-02-23T00:14:15;97525.94;;;8.87;60.59
54453;BME280;40363;52.270;10.546;2024-02-23T00:16:44;97526.34;;;8.89;61.60
54453;BME280;40363;52.270;10.546;2024-02-23T00:19:13;97546.28;;;8.82;61.71
54453;BME280;40363;52.270;10.546;2024-02-23T00:21:43;97550.94;;;8.82;61.58
54453;BME280;40363;52.270;10.546;2024-02-23T00:24:13;97567.31;;;8.78;62.61
54453;BME280;40363;52.270;10.546;2024-02-23T00:26:41;97552.50;;;8.79;61.20
54453;BME280;40363;52.270;10.546;2024-02-23T00:29:11;97566.94;;;8.83;60.11
54453;BME280;40363;52.270;10.546;2024-02-23T00:31:37;97577.88;;;8.80;60.30
54453;BME280;40363;52.270;10.546;2024-02-23T00:34:06;97573.19;;;8.77;59.53
54453;BME280;40363;52.270;10.546;2024-02-23T00:36:35;97592.31;;;8.77;58.81
54453;BME280;40363;52.270;10.546;2024-02-23T00:39:02;97594.66;;;8.74;59.00
54453;BME280;40363;52.270;10.546;2024-02-23T00:41:29;97609.09;;;8.71;58.71
54453;BME280;40363;52.270;10.546;2024-02-23T00:43:56;97600.88;;;8.71;57.41
54453;BME280;40363;52.270;10.546;2024-02-23T00:46:24;97595.81;;;8.73;56.99
54453;BME280;40363;52.270;10.546;2024-02-23T00:48:51;97608.69;;;8.66;57.51
54453;BME280;40363;52.270;10.546;2024-02-23T00:51:17;97606.75;;;8.66;56.95
54453;BME280;40363;52.270;10.546;2024-02-23T00:53:44;97607.13;;;8.65;56.75
54453;BME280;40363;52.270;10.546;2024-02-23T00:56:10;97616.91;;;8.62;57.04
54453;BME280;40363;52.270;10.546;2024-02-23T00:58:38;97627.81;;;8.69;57.11
54453;BME280;40363;52.270;10.546;2024-02-23T01:01:04;97637.16;;;8.68;56.98
54453;BME280;40363;52.270;10.546;2024-02-23T01:03:35;97646.13;;;8.62;56.37
54453;BME280;40363;52.270;10.546;2024-02-23T01:06:02;97652.38;;;8.66;54.45
54453;BME280;40363;52.270;10.546;2024-02-23T01:08:28;97650.44;;;8.66;53.95
54453;BME280;40363;52.270;10.546;2024-02-23T01:10:55;97664.88;;;8.67;53.54
54453;BME280;40363;52.270;10.546;2024-02-23T01:13:22;97668.78;;;8.66;54.49
54453;BME280;40363;52.270;10.546;2024-02-23T01:15:49;97682.44;;;8.66;54.99
54453;BME280;40363;52.270;10.546;2024-02-23T01:18:15;97693.75;;;8.61;54.91
54453;BME280;40363;52.270;10.546;2024-02-23T01:20:44;97696.47;;;8.64;55.43
54453;BME280;40363;52.270;10.546;2024-02-23T01:23:13;97696.47;;;8.64;55.35
54453;BME280;40363;52.270;10.546;2024-02-23T01:25:39;97696.09;;;8.62;55.00
54453;BME280;40363;52.270;10.546;2024-02-23T01:28:06;97705.44;;;8.61;54.91
54453;BME280;40363;52.270;10.546;2024-02-23T01:30:33;97716.75;;;8.63;54.81
54453;BME280;40363;52.270;10.546;2024-02-23T01:33:00;97708.53;;;8.60;55.06
54453;BME280;40363;52.270;10.546;2024-02-23T01:35:40;97717.94;;;8.59;55.25
54453;BME280;40363;52.270;10.546;2024-02-23T01:38:12;97717.94;;;8.62;54.24
54453;BME280;40363;52.270;10.546;2024-02-23T01:40:44;97726.13;;;8.59;53.55
54453;BME280;40363;52.270;10.546;2024-02-23T01:43:11;97744.03;;;8.56;53.61
54453;BME280;40363;52.270;10.546;2024-02-23T01:45:38;97747.56;;;8.60;53.65
54453;BME280;40363;52.270;10.546;2024-02-23T01:48:05;97754.19;;;8.55;53.34
54453;BME280;40363;52.270;10.546;2024-02-23T01:50:32;97758.06;;;8.54;53.68
54453;BME280;40363;52.270;10.546;2024-02-23T01:53:01;97774.06;;;8.56;54.36
54453;BME280;40363;52.270;10.546;2024-02-23T01:55:30;97775.22;;;8.51;54.14
54453;BME280;40363;52.270;10.546;2024-02-23T01:57:58;97777.19;;;8.51;54.58
54453;BME280;40363;52.270;10.546;2024-02-23T02:00:29;97784.13;;;8.37;55.03
54453;BME280;40363;52.270;10.546;2024-02-23T02:02:56;97809.13;;;8.43;55.71
54453;BME280;40363;52.270;10.546;2024-02-23T02:05:24;97808.66;;;8.30;55.33
54453;BME280;40363;52.270;10.546;2024-02-23T02:07:53;97832.81;;;8.25;55.73
54453;BME280;40363;52.270;10.546;2024-02-23T02:10:24;97838.59;;;8.12;55.93
54453;BME280;40363;52.270;10.546;2024-02-23T02:12:52;97857.28;;;8.07;55.94
54453;BME280;40363;52.270;10.546;2024-02-23T02:15:19;97877.47;;;7.95;57.25
54453;BME280;40363;52.270;10.546;2024-02-23T02:17:47;97879.34;;;7.87;57.19
54453;BME280;40363;52.270;10.546;2024-02-23T02:20:14;97896.44;;;7.80;58.20
54453;BME280;40363;52.270;10.546;2024-02-23T02:22:44;97897.59;;;7.76;58.51
54453;BME280;40363;52.270;10.546;2024-02-23T02:25:14;97914.28;;;7.71;58.86
54453;BME280;40363;52.270;10.546;2024-02-23T02:27:40;97925.13;;;7.63;59.64
54453;BME280;40363;52.270;10.546;2024-02-23T02:30:10;97919.22;;;7.54;59.96
54453;BME280;40363;52.270;10.546;2024-02-23T02:32:37;97928.81;;;7.41;60.69
54453;BME280;40363;52.270;10.546;2024-02-23T02:35:04;97959.84;;;7.29;61.63
54453;BME280;40363;52.270;10.546;2024-02-23T02:37:31;97957.38;;;7.17;62.39
54453;BME280;40363;52.270;10.546;2024-02-23T02:39:57;97966.19;;;7.06;62.92
54453;BME280;40363;52.270;10.546;2024-02-23T02:42:24;97977.03;;;7.03;63.66
54453;BME280;40363;52.270;10.546;2024-02-23T02:44:53;97975.69;;;6.89;64.11
54453;BME280;40363;52.270;10.546;2024-02-23T02:47:22;97989.91;;;6.76;64.86
54453;BME280;40363;52.270;10.546;2024-02-23T02:49:49;98002.31;;;6.69;65.17
54453;BME280;40363;52.270;10.546;2024-02-23T02:52:16;98015.91;;;6.69;65.16
54453;BME280;40363;52.270;10.546;2024-02-23T02:54:43;98022.88;;;6.67;65.29
54453;BME280;40363;52.270;10.546;2024-02-23T02:57:10;98020.91;;;6.67;65.92
54453;BME280;40363;52.270;10.546;2024-02-23T02:59:36;98036.44;;;6.63;65.64
54453;BME280;40363;52.270;10.546;2024-02-23T03:02:03;98046.53;;;6.63;66.29
54453;BME280;40363;52.270;10.546;2024-02-23T03:04:31;98042.59;;;6.60;66.34
54453;BME280;40363;52.270;10.546;2024-02-23T03:06:58;98056.16;;;6.57;65.97
54453;BME280;40363;52.270;10.546;2024-02-23T03:09:25;98062.00;;;6.59;66.57
54453;BME280;40363;52.270;10.546;2024-02-23T03:11:52;98076.00;;;6.57;66.81
54453;BME280;40363;52.270;10.546;2024-02-23T03:14:18;98074.50;;;6.60;67.35
54453;BME280;40363;52.270;10.546;2024-02-23T03:16:46;98079.94;;;6.60;67.69
54453;BME280;40363;52.270;10.546;2024-02-23T03:19:13;98088.47;;;6.58;66.82
54453;BME280;40363;52.270;10.546;2024-02-23T03:21:42;98083.38;;;6.57;67.19
54453;BME280;40363;52.270;10.546;2024-02-23T03:24:08;98082.09;;;6.50;66.11
54453;BME280;40363;52.270;10.546;2024-02-23T03:26:35;98097.66;;;6.50;65.53
54453;BME280;40363;52.270;10.546;2024-02-23T03:29:02;98086.72;;;6.46;65.81
54453;BME280;40363;52.270;10.546;2024-02-23T03:31:28;98101.34;;;6.38;65.08
54453;BME280;40363;52.270;10.546;2024-02-23T03:33:55;98109.16;;;6.40;65.50
54453;BME280;40363;52.270;10.546;2024-02-23T03:36:22;98102.13;;;6.39;65.54
54453;BME280;40363;52.270;10.546;2024-02-23T03:38:50;98089.69;;;6.38;65.15
54453;BME280;40363;52.270;10.546;2024-02-23T03:41:19;98116.53;;;6.39;65.27
54453;BME280;40363;52.270;10.546;2024-02-23T03:43:54;98123.47;;;6.37;65.62
54453;BME280;40363;52.270;10.546;2024-02-23T03:46:21;98132.38;;;6.33;65.29
54453;BME280;40363;52.270;10.546;2024-02-23T03:48:48;98136.97;;;6.29;65.31
54453;BME280;40363;52.270;10.546;2024-02-23T03:51:15;98145.91;;;6.30;65.04
54453;BME280;40363;52.270;10.546;2024-02-23T03:53:41;98150.06;;;6.24;65.41
54453;BME280;40363;52.270;10.546;2024-02-23T03:56:10;98156.78;;;6.30;65.31
54453;BME280;40363;52.270;10.546;2024-02-23T03:58:37;98153.28;;;6.29;65.13
54453;BME280;40363;52.270;10.546;2024-02-23T04:01:04;98159.44;;;6.26;64.80
54453;BME280;40363;52.270;10.546;2024-02-23T04:03:31;98141.84;;;6.20;64.09
54453;BME280;40363;52.270;10.546;2024-02-23T04:05:57;98179.44;;;6.14;63.46
54453;BME280;40363;52.270;10.546;2024-02-23T04:08:24;98161.59;;;6.17;63.12
54453;BME280;40363;52.270;10.546;2024-02-23T04:10:51;98176.00;;;6.18;63.33
54453;BME280;40363;52.270;10.546;2024-02-23T04:13:19;98174.13;;;6.22;62.64
54453;BME280;40363;52.270;10.546;2024-02-23T04:15:46;98185.31;;;6.17;63.02
54453;BME280;40363;52.270;10.546;2024-02-23T04:18:13;98182.59;;;6.17;62.89
54453;BME280;40363;52.270;10.546;2024-02-23T04:20:40;98188.03;;;6.17;62.60
54453;BME280;40363;52.270;10.546;2024-02-23T04:23:07;98201.19;;;6.14;63.13
54453;BME280;40363;52.270;10.546;2024-02-23T04:25:34;98198.41;;;6.11;62.08
54453;BME280;40363;52.270;10.546;2024-02-23T04:28:01;98206.16;;;6.09;61.64
54453;BME280;40363;52.270;10.546;2024-02-23T04:30:29;98205.78;;;6.10;61.65
54453;BME280;40363;52.270;10.546;2024-02-23T04:32:56;98224.03;;;6.10;61.46
54453;BME280;40363;52.270;10.546;2024-02-23T04:35:22;98210.44;;;6.10;60.44
54453;BME280;40363;52.270;10.546;2024-02-23T04:37:49;98222.09;;;6.10;59.89
54453;BME280;40363;52.270;10.546;2024-02-23T04:40:16;98222.84;;;6.07;60.59
54453;BME280;40363;52.270;10.546;2024-02-23T04:42:44;98233.72;;;6.07;60.19
54453;BME280;40363;52.270;10.546;2024-02-23T04:45:12;98236.06;;;6.09;60.11
54453;BME280;40363;52.270;10.546;2024-02-23T04:47:43;98243.00;;;6.06;60.34
54453;BME280;40363;52.270;10.546;2024-02-23T04:50:12;98237.22;;;6.08;60.20
54453;BME280;40363;52.270;10.546;2024-02-23T04:52:38;98246.16;;;6.08;60.13
54453;BME280;40363;52.270;10.546;2024-02-23T04:55:05;98259.09;;;6.15;60.25
54453;BME280;40363;52.270;10.546;2024-02-23T04:57:32;98251.75;;;6.16;60.10
54453;BME280;40363;52.270;10.546;2024-02-23T04:59:59;98250.59;;;6.17;60.31
54453;BME280;40363;52.270;10.546;2024-02-23T05:02:27;98268.06;;;6.16;60.48
54453;BME280;40363;52.270;10.546;2024-02-23T05:05:01;98264.97;;;6.17;61.25
54453;BME280;40363;52.270;10.546;2024-02-23T05:07:29;98263.06;;;6.18;61.63
54453;BME280;40363;52.270;10.546;2024-02-23T05:09:56;98274.38;;;6.20;61.75
54453;BME280;40363;52.270;10.546;2024-02-23T05:12:23;98270.50;;;6.21;61.44
54453;BME280;40363;52.270;10.546;2024-02-23T05:14:50;98273.13;;;6.17;61.65
54453;BME280;40363;52.270;10.546;2024-02-23T05:17:17;98286.72;;;6.17;61.87
54453;BME280;40363;52.270;10.546;2024-02-23T05:19:44;98288.25;;;6.14;61.62
54453;BME280;40363;52.270;10.546;2024-02-23T05:22:13;98297.19;;;6.15;61.38
54453;BME280;40363;52.270;10.546;2024-02-23T05:24:40;98290.53;;;6.12;60.70
54453;BME280;40363;52.270;10.546;2024-02-23T05:27:07;98301.50;;;6.16;60.64
54453;BME280;40363;52.270;10.546;2024-02-23T05:29:34;98298.41;;;6.18;60.87
54453;BME280;40363;52.270;10.546;2024-02-23T05:32:00;98307.34;;;6.18;60.75
54453;BME280;40363;52.270;10.546;2024-02-23T05:34:27;98305.41;;;6.19;60.47
54453;BME280;40363;52.270;10.546;2024-02-23T05:36:54;98301.56;;;6.20;60.08
54453;BME280;40363;52.270;10.546;2024-02-23T05:39:22;98304.50;;;6.11;60.14
54453;BME280;40363;52.270;10.546;2024-02-23T05:41:49;98304.84;;;6.09;59.71
54453;BME280;40363;52.270;10.546;2024-02-23T05:44:16;98305.22;;;6.08;59.02
54453;BME280;40363;52.270;10.546;2024-02-23T05:46:43;98307.50;;;6.06;58.89
54453;BME280;40363;52.270;10.546;2024-02-23T05:49:11;98317.75;;;6.12;58.89
54453;BME280;40363;52.270;10.546;2024-02-23T05:51:38;98316.16;;;6.11;58.97
54453;BME280;40363;52.270;10.546;2024-02-23T05:54:05;98320.75;;;6.07;58.84
54453;BME280;40363;52.270;10.546;2024-02-23T05:56:34;98320.66;;;6.04;59.69
54453;BME280;40363;52.270;10.546;2024-02-23T05:59:02;98321.38;;;6.01;59.75
54453;BME280;40363;52.270;10.546;2024-02-23T06:01:29;98327.16;;;5.99;60.07
54453;BME280;40363;52.270;10.546;2024-02-23T06:03:55;98325.94;;;5.96;60.29
54453;BME280;40363;52.270;10.546;2024-02-23T06:06:22;98325.94;;;5.96;59.79
54453;BME280;40363;52.270;10.546;2024-02-23T06:08:49;98326.75;;;5.97;60.15
54453;BME280;40363;52.270;10.546;2024-02-23T06:11:16;98327.88;;;5.96;60.09
54453;BME280;40363;52.270;10.546;2024-02-23T06:13:44;98334.41;;;5.95;60.06
54453;BME280;40363;52.270;10.546;2024-02-23T06:16:11;98325.94;;;5.96;59.19
54453;BME280;40363;52.270;10.546;2024-02-23T06:18:38;98325.94;;;5.96;58.74
54453;BME280;40363;52.270;10.546;2024-02-23T06:21:15;98331.81;;;5.99;58.10
54453;BME280;40363;52.270;10.546;2024-02-23T06:23:43;98335.50;;;5.90;58.36
54453;BME280;40363;52.270;10.546;2024-02-23T06:26:10;98345.13;;;5.88;58.70
54453;BME280;40363;52.270;10.546;2024-02-23T06:28:39;98349.44;;;5.89;58.17
54453;BME280;40363;52.270;10.546;2024-02-23T06:31:15;98355.31;;;5.91;58.33
54453;BME280;40363;52.270;10.546;2024-02-23T06:33:44;98367.84;;;5.95;57.74
54453;BME280;40363;52.270;10.546;2024-02-23T06:36:14;98371.38;;;5.96;58.30
54453;BME280;40363;52.270;10.546;2024-02-23T06:38:44;98371.13;;;6.01;57.99
54453;BME280;40363;52.270;10.546;2024-02-23T06:41:12;98381.28;;;6.04;57.82
54453;BME280;40363;52.270;10.546;2024-02-23T06:43:40;98378.72;;;6.11;57.70
54453;BME280;40363;52.270;10.546;2024-02-23T06:46:07;98388.47;;;6.12;57.77
54453;BME280;40363;52.270;10.546;2024-02-23T06:48:35;98394.25;;;6.11;57.89
54453;BME280;40363;52.270;10.546;2024-02-23T06:51:02;98396.63;;;6.12;57.82
54453;BME280;40363;52.270;10.546;2024-02-23T06:53:30;98398.66;;;6.16;58.50
54453;BME280;40363;52.270;10.546;2024-02-23T06:55:58;98400.91;;;6.13;58.39
54453;BME280;40363;52.270;10.546;2024-02-23T06:58:26;98395.66;;;6.21;58.10
54453;BME280;40363;52.270;10.546;2024-02-23T07:00:52;98387.03;;;6.19;58.24
54453;BME280;40363;52.270;10.546;2024-02-23T07:03:21;98388.63;;;6.20;58.60
54453;BME280;40363;52.270;10.546;2024-02-23T07:05:49;98393.34;;;6.23;58.31
54453;BME280;40363;52.270;10.546;2024-02-23T07:08:16;98377.53;;;6.28;58.21
54453;BME280;40363;52.270;10.546;2024-02-23T07:10:43;98388.84;;;6.30;57.87
54453;BME280;40363;52.270;10.546;2024-02-23T07:13:10;98398.25;;;6.33;57.84
54453;BME280;40363;52.270;10.546;2024-02-23T07:15:37;98408.84;;;6.38;58.10
54453;BME280;40363;52.270;10.546;2024-02-23T07:18:04;98417.38;;;6.37;57.67
54453;BME280;40363;52.270;10.546;2024-02-23T07:20:33;98430.91;;;6.33;57.65
54453;BME280;40363;52.270;10.546;2024-02-23T07:23:01;98436.75;;;6.35;57.87
54453;BME280;40363;52.270;10.546;2024-02-23T07:25:28;98436.84;;;6.39;58.09
54453;BME280;40363;52.270;10.546;2024-02-23T07:27:55;98448.88;;;6.38;57.65
54453;BME280;40363;52.270;10.546;2024-02-23T07:30:22;98453.69;;;6.44;57.32
54453;BME280;40363;52.270;10.546;2024-02-23T07:32:49;98454.19;;;6.50;57.29
54453;BME280;40363;52.270;10.546;2024-02-23T07:35:16;98452.97;;;6.47;56.68
54453;BME280;40363;52.270;10.546;2024-02-23T07:37:42;98450.59;;;6.46;56.60
54453;BME280;40363;52.270;10.546;2024-02-23T07:40:13;98454.13;;;6.46;56.42
54453;BME280;40363;52.270;10.546;2024-02-23T07:42:40;98460.72;;;6.45;56.79
54453;BME280;40363;52.270;10.546;2024-02-23T07:45:07;98460.00;;;6.48;57.09
54453;BME280;40363;52.270;10.546;2024-02-23T07:47:34;98473.59;;;6.48;56.56
54453;BME280;40363;52.270;10.546;2024-02-23T07:50:01;98465.53;;;6.52;56.99
54453;BME280;40363;52.270;10.546;2024-02-23T07:52:27;98481.06;;;6.51;56.18
54453;BME280;40363;52.270;10.546;2024-02-23T07:54:54;98487.09;;;6.61;56.21
54453;BME280;40363;52.270;10.546;2024-02-23T07:57:23;98486.38;;;6.64;56.05
54453;BME280;40363;52.270;10.546;2024-02-23T07:59:50;98494.97;;;6.66;55.32
54453;BME280;40363;52.270;10.546;2024-02-23T08:02:16;98484.91;;;6.66;55.13
54453;BME280;40363;52.270;10.546;2024-02-23T08:04:43;98490.00;;;6.68;55.57
54453;BME280;40363;52.270;10.546;2024-02-23T08:07:12;98506.13;;;6.77;55.48
54453;BME280;40363;52.270;10.546;2024-02-23T08:09:40;98511.00;;;6.87;54.55
54453;BME280;40363;52.270;10.546;2024-02-23T08:12:07;98519.34;;;6.94;54.44
54453;BME280;40363;52.270;10.546;2024-02-23T08:14:39;98524.91;;;7.01;54.30
54453;BME280;40363;52.270;10.546;2024-02-23T08:17:06;98517.00;;;7.12;54.06
54453;BME280;40363;52.270;10.546;2024-02-23T08:19:33;98527.47;;;7.10;53.44
54453;BME280;40363;52.270;10.546;2024-02-23T08:21:59;98512.69;;;7.11;54.31
54453;BME280;40363;52.270;10.546;2024-02-23T08:24:26;98514.19;;;7.08;53.97
54453;BME280;40363;52.270;10.546;2024-02-23T08:26:52;98521.88;;;7.22;53.46
54453;BME280;40363;52.270;10.546;2024-02-23T08:29:20;98503.06;;;7.37;53.35
54453;BME280;40363;52.270;10.546;2024-02-23T08:31:50;98518.34;;;7.41;53.19
54453;BME280;40363;52.270;10.546;2024-02-23T08:34:17;98517.63;;;7.44;53.01
54453;BME280;40363;52.270;10.546;2024-02-23T08:36:44;98510.81;;;7.54;53.06
54453;BME280;40363;52.270;10.546;2024-02-23T08:39:10;98499.09;;;7.54;52.82
54453;BME280;40363;52.270;10.546;2024-02-23T08:41:37;98498.94;;;7.66;52.87
54453;BME280;40363;52.270;10.546;2024-02-23T08:44:04;98491.97;;;7.69;52.60
54453;BME280;40363;52.270;10.546;2024-02-23T08:46:31;98505.84;;;7.60;52.62
54453;BME280;40363;52.270;10.546;2024-02-23T08:48:59;98513.59;;;7.58;52.18
54453;BME280;40363;52.270;10.546;2024-02-23T08:51:25;98506.81;;;7.71;52.06
54453;BME280;40363;52.270;10.546;2024-02-23T08:53:52;98512.41;;;7.78;51.79
54453;BME280;40363;52.270;10.546;2024-02-23T08:56:20;98512.66;;;7.93;51.75
54453;BME280;40363;52.270;10.546;2024-02-23T08:58:47;98516.34;;;8.27;50.76
54453;BME280;40363;52.270;10.546;2024-02-23T09:01:14;98510.25;;;8.37;50.10
54453;BME280;40363;52.270;10.546;2024-02-23T09:03:40;98517.72;;;8.64;49.49
54453;BME280;40363;52.270;10.546;2024-02-23T09:06:09;98529.06;;;9.57;47.10
54453;BME280;40363;52.270;10.546;2024-02-23T09:08:35;98521.94;;;9.90;46.45
54453;BME280;40363;52.270;10.546;2024-02-23T09:11:02;98516.25;;;10.05;45.84
54453;BME280;40363;52.270;10.546;2024-02-23T09:13:32;98518.69;;;10.18;45.59
54453;BME280;40363;52.270;10.546;2024-02-23T09:15:58;98531.00;;;9.94;46.17
54453;BME280;40363;52.270;10.546;2024-02-23T09:18:25;98535.00;;;10.03;46.06
54453;BME280;40363;52.270;10.546;2024-02-23T09:20:52;98549.88;;;10.06;46.43
54453;BME280;40363;52.270;10.546;2024-02-23T09:23:20;98550.75;;;10.14;46.15
54453;BME280;40363;52.270;10.546;2024-02-23T09:25:47;98550.63;;;10.03;45.20
54453;BME280;40363;52.270;10.546;2024-02-23T09:28:13;98548.66;;;10.41;44.46
54453;BME280;40363;52.270;10.546;2024-02-23T09:30:40;98542.06;;;10.49;43.77
54453;BME280;40363;52.270;10.546;2024-02-23T09:33:07;98564.38;;;10.51;43.85
54453;BME280;40363;52.270;10.546;2024-02-23T09:35:34;98552.03;;;9.86;45.48
54453;BME280;40363;52.270;10.546;2024-02-23T09:38:01;98555.31;;;9.31;45.78
54453;BME280;40363;52.270;10.546;2024-02-23T09:40:29;98560.03;;;9.34;46.55
54453;BME280;40363;52.270;10.546;2024-02-23T09:42:57;98558.09;;;9.35;46.35
54453;BME280;40363;52.270;10.546;2024-02-23T09:45:24;98569.56;;;10.19;45.02
54453;BME280;40363;52.270;10.546;2024-02-23T09:47:53;98555.41;;;10.54;44.39
54453;BME280;40363;52.270;10.546;2024-02-23T09:50:22;98556.25;;;10.17;44.87
54453;BME280;40363;52.270;10.546;2024-02-23T09:52:49;98569.41;;;9.33;47.08
54453;BME280;40363;52.270;10.546;2024-02-23T09:55:16;98558.38;;;8.96;48.03
54453;BME280;40363;52.270;10.546;2024-02-23T09:57:46;98563.94;;;8.76;48.65
54453;BME280;40363;52.270;10.546;2024-02-23T10:00:16;98569.13;;;8.85;48.17
54453;BME280;40363;52.270;10.546;2024-02-23T10:02:43;98575.84;;;9.18;47.98
54453;BME280;40363;52.270;10.546;2024-02-23T10:05:10;98571.19;;;8.91;47.55
54453;BME280;40363;52.270;10.546;2024-02-23T10:07:38;98574.53;;;9.08;47.52
54453;BME280;40363;52.270;10.546;2024-02-23T10:10:07;98571.59;;;9.54;46.82
54453;BME280;40363;52.270;10.546;2024-02-23T10:12:34;98575.19;;;9.96;46.31
54453;BME280;40363;52.270;10.546;2024-02-23T10:25:17;98545.63;;;10.57;43.93
54453;BME280;40363;52.270;10.546;2024-02-23T10:27:44;98549.66;;;10.74;43.77
54453;BME280;40363;52.270;10.546;2024-02-23T10:30:13;98551.28;;;10.82;43.79
54453;BME280;40363;52.270;10.546;2024-02-23T10:32:41;98549.09;;;11.09;43.36
54453;BME280;40363;52.270;10.546;2024-02-23T10:35:10;98551.41;;;11.00;43.66
54453;BME280;40363;52.270;10.546;2024-02-23T10:37:37;98555.66;;;10.90;43.39
54453;BME280;40363;52.270;10.546;2024-02-23T10:40:06;98548.19;;;10.91;43.45
54453;BME280;40363;52.270;10.546;2024-02-23T10:42:38;98546.19;;;10.84;43.89
54453;BME280;40363;52.270;10.546;2024-02-23T10:45:06;98542.66;;;10.80;44.37
54453;BME280;40363;52.270;10.546;2024-02-23T10:47:34;98553.00;;;11.08;43.15
54453;BME280;40363;52.270;10.546;2024-02-23T10:50:02;98534.19;;;11.07;42.81
54453;BME280;40363;52.270;10.546;2024-02-23T10:52:30;98547.66;;;11.33;42.05
54453;BME280;40363;52.270;10.546;2024-02-23T10:55:00;98547.47;;;11.01;42.61
54453;BME280;40363;52.270;10.546;2024-02-23T10:57:30;98551.56;;;11.40;41.49
54453;BME280;40363;52.270;10.546;2024-02-23T10:59:58;98542.59;;;11.43;41.67
54453;BME280;40363;52.270;10.546;2024-02-23T11:02:27;98562.03;;;11.12;42.24
54453;BME280;40363;52.270;10.546;2024-02-23T11:04:56;98550.41;;;11.33;42.44
54453;BME280;40363;52.270;10.546;2024-02-23T11:07:24;98553.16;;;11.41;42.06
54453;BME280;40363;52.270;10.546;2024-02-23T11:09:54;98554.75;;;11.45;41.85
54453;BME280;40363;52.270;10.546;2024-02-23T11:12:25;98561.09;;;11.64;41.19
54453;BME280;40363;52.270;10.546;2024-02-23T11:14:57;98566.88;;;11.44;41.80
54453;BME280;40363;52.270;10.546;2024-02-23T11:17:27;98555.97;;;11.59;41.68
54453;BME280;40363;52.270;10.546;2024-02-23T11:19:55;98573.50;;;11.32;42.17
54453;BME280;40363;52.270;10.546;2024-02-23T11:22:25;98564.22;;;10.85;42.88
54453;BME280;40363;52.270;10.546;2024-02-23T11:24:52;98573.13;;;10.27;44.55
54453;BME280;40363;52.270;10.546;2024-02-23T11:27:19;98575.75;;;10.12;45.66
54453;BME280;40363;52.270;10.546;2024-02-23T11:30:01;98583.81;;;9.98;45.44
54453;BME280;40363;52.270;10.546;2024-02-23T11:32:37;98567.84;;;10.03;45.05
54453;BME280;40363;52.270;10.546;2024-02-23T11:35:06;98574.66;;;10.20;45.37
54453;BME280;40363;52.270;10.546;2024-02-23T11:37:32;98578.84;;;10.52;44.79
54453;BME280;40363;52.270;10.546;2024-02-23T11:40:01;98571.69;;;10.36;45.13
54453;BME280;40363;52.270;10.546;2024-02-23T11:42:31;98575.81;;;10.19;44.53
54453;BME280;40363;52.270;10.546;2024-02-23T11:44:59;98570.97;;;10.02;44.87
54453;BME280;40363;52.270;10.546;2024-02-23T11:47:27;98575.56;;;9.94;44.97
54453;BME280;40363;52.270;10.546;2024-02-23T11:49:55;98567.53;;;9.75;44.97
54453;BME280;40363;52.270;10.546;2024-02-23T11:52:21;98586.41;;;9.83;44.62
54453;BME280;40363;52.270;10.546;2024-02-23T11:54:48;98577.75;;;9.81;45.50
54453;BME280;40363;52.270;10.546;2024-02-23T11:57:15;98586.50;;;9.94;44.72
54453;BME280;40363;52.270;10.546;2024-02-23T11:59:42;98586.50;;;9.94;44.30
54453;BME280;40363;52.270;10.546;2024-02-23T12:02:10;98592.19;;;10.12;45.21
54453;BME280;40363;52.270;10.546;2024-02-23T12:04:36;98586.34;;;10.17;44.29
54453;BME280;40363;52.270;10.546;2024-02-23T12:07:03;98579.75;;;10.22;44.18
54453;BME280;40363;52.270;10.546;2024-02-23T12:09:30;98592.22;;;10.16;44.77
54453;BME280;40363;52.270;10.546;2024-02-23T12:11:57;98593.63;;;10.02;44.46
54453;BME280;40363;52.270;10.546;2024-02-23T12:14:24;98587.41;;;10.05;44.13
54453;BME280;40363;52.270;10.546;2024-02-23T12:16:52;98589.69;;;10.00;43.35
54453;BME280;40363;52.270;10.546;2024-02-23T12:19:20;98590.47;;;9.97;43.39
54453;BME280;40363;52.270;10.546;2024-02-23T12:21:48;98593.66;;;10.06;43.09
54453;BME280;40363;52.270;10.546;2024-02-23T12:24:15;98601.13;;;10.09;42.80
54453;BME280;40363;52.270;10.546;2024-02-23T12:26:42;98600.19;;;9.94;43.71
54453;BME280;40363;52.270;10.546;2024-02-23T12:29:09;98605.88;;;10.12;43.69
54453;BME280;40363;52.270;10.546;2024-02-23T12:31:36;98610.09;;;10.06;43.04
54453;BME280;40363;52.270;10.546;2024-02-23T12:34:02;98607.69;;;10.01;43.53
54453;BME280;40363;52.270;10.546;2024-02-23T12:36:31;98611.59;;;10.00;43.27
54453;BME280;40363;52.270;10.546;2024-02-23T12:39:00;98611.34;;;10.12;43.66
54453;BME280;40363;52.270;10.546;2024-02-23T12:41:26;98612.56;;;10.18;43.54
54453;BME280;40363;52.270;10.546;2024-02-23T12:43:53;98620.00;;;10.18;43.25
54453;BME280;40363;52.270;10.546;2024-02-23T12:46:20;98609.66;;;10.00;43.37
54453;BME280;40363;52.270;10.546;2024-02-23T12:48:46;98611.25;;;10.05;43.01
54453;BME280;40363;52.270;10.546;2024-02-23T12:51:13;98615.44;;;9.92;43.44
54453;BME280;40363;52.270;10.546;2024-02-23T12:53:42;98612.59;;;9.84;43.42
54453;BME280;40363;52.270;10.546;2024-02-23T12:56:10;98608.69;;;9.82;43.23
54453;BME280;40363;52.270;10.546;2024-02-23T12:58:38;98600.59;;;9.96;43.33
54453;BME280;40363;52.270;10.546;2024-02-23T13:01:05;98608.56;;;10.09;42.72
54453;BME280;40363;52.270;10.546;2024-02-23T13:03:36;98605.88;;;10.12;42.88
54453;BME280;40363;52.270;10.546;2024-02-23T13:06:05;98600.78;;;10.14;42.45
54453;BME280;40363;52.270;10.546;2024-02-23T13:08:32;98609.91;;;9.88;43.35
54453;BME280;40363;52.270;10.546;2024-02-23T13:11:01;98604.59;;;9.68;43.87